Sprucedale, Canada
Current Conditions -  °F | °C
As of 10:00 PM on Wednesday 22 Oct 2014 (Local Time) from CYQA Reporting Station
Clear Clear  
Wind Chill: 41°   Ceiling: Unl
Heat Index: 41°   Visibility: 9mi
Dew Point: 41°   Wind: 3mph
Humidity: 100%   Direction: 320°NW
Pressure: 30.26"   Gusts: NA
Location:  45.48°N, 79.47°W
Report Text: CYQA 230200Z AUTO 32003KT 9SM CLR 05/05 A3026 RMK SLP258
Loading
Personal Weather Stations






























Interactive Weather Map
Tropical Storm Tracking
New forecast layout! Learn more

10-Day Weather Forecast

Advertisements
Track Severe Weather on mobile